Terminal Aerodrome Forecast
Issued by NWS

Current Version | Previous Version | Text Only | Print | Product List | Glossary On
Versions: 1 2 3 4 5 6 7 8 9 10 11 12 13 14 15 16 17 18 19
000
FTUS41 KCLE 042337
TAFFDY
TAF
KFDY 042337Z 0500/0524 30008KT P6SM SCT012 OVC025
     FM050500 36006KT 5SM -SHRA BR SCT008 OVC012
      TEMPO 0507/0511 BKN008
     FM051100 36012KT P6SM SCT012 OVC025
     FM051600 02015G25KT P6SM OVC035=

USA.gov is the U.S. government's official web portal to all federal, state and local government web resources and services.